sensor_id;sensor_type;location;lat;lon;timestamp;pressure;altitude;pressure_sealevel;temperature;humidity
10392;BME280;5242;49.244;6.774;2023-05-07T00:00:15;99447.22;;;12.57;nan
10392;BME280;5242;49.244;6.774;2023-05-07T00:08:09;99452.50;;;12.43;nan
10392;BME280;5242;49.244;6.774;2023-05-07T00:16:02;99451.84;;;12.26;nan
10392;BME280;5242;49.244;6.774;2023-05-07T00:23:54;99455.94;;;12.13;nan
10392;BME280;5242;49.244;6.774;2023-05-07T00:31:46;99455.75;;;12.02;nan
10392;BME280;5242;49.244;6.774;2023-05-07T00:39:38;99441.22;;;11.94;nan
10392;BME280;5242;49.244;6.774;2023-05-07T00:47:30;99435.16;;;11.85;nan
10392;BME280;5242;49.244;6.774;2023-05-07T00:55:23;99426.03;;;11.74;nan
10392;BME280;5242;49.244;6.774;2023-05-07T01:03:15;99425.53;;;11.68;nan
10392;BME280;5242;49.244;6.774;2023-05-07T01:11:07;99413.03;;;11.67;nan
10392;BME280;5242;49.244;6.774;2023-05-07T01:19:00;99427.06;;;11.66;nan
10392;BME280;5242;49.244;6.774;2023-05-07T01:26:52;99420.91;;;11.49;nan
10392;BME280;5242;49.244;6.774;2023-05-07T01:34:45;99420.22;;;11.33;nan
10392;BME280;5242;49.244;6.774;2023-05-07T01:42:39;99419.50;;;11.17;nan
10392;BME280;5242;49.244;6.774;2023-05-07T01:50:32;99429.84;;;11.07;nan
10392;BME280;5242;49.244;6.774;2023-05-07T01:58:24;99433.72;;;11.06;nan
10392;BME280;5242;49.244;6.774;2023-05-07T02:06:15;99413.66;;;10.95;nan
10392;BME280;5242;49.244;6.774;2023-05-07T02:14:07;99413.16;;;10.90;nan
10392;BME280;5242;49.244;6.774;2023-05-07T02:21:59;99417.66;;;10.82;nan
10392;BME280;5242;49.244;6.774;2023-05-07T02:29:51;99427.25;;;10.76;nan
10392;BME280;5242;49.244;6.774;2023-05-07T02:37:43;99433.78;;;10.71;nan
10392;BME280;5242;49.244;6.774;2023-05-07T02:45:35;99428.34;;;10.71;nan
10392;BME280;5242;49.244;6.774;2023-05-07T02:53:29;99429.75;;;10.65;nan
10392;BME280;5242;49.244;6.774;2023-05-07T03:01:21;99435.03;;;10.58;nan
10392;BME280;5242;49.244;6.774;2023-05-07T03:09:13;99422.06;;;10.51;nan
10392;BME280;5242;49.244;6.774;2023-05-07T03:17:05;99415.28;;;10.45;nan
10392;BME280;5242;49.244;6.774;2023-05-07T03:24:57;99416.72;;;10.39;nan
10392;BME280;5242;49.244;6.774;2023-05-07T03:32:49;99404.09;;;10.31;nan
10392;BME280;5242;49.244;6.774;2023-05-07T03:40:41;99405.47;;;10.24;nan
10392;BME280;5242;49.244;6.774;2023-05-07T03:48:33;99403.03;;;10.19;nan
10392;BME280;5242;49.244;6.774;2023-05-07T03:56:26;99399.09;;;10.17;nan
10392;BME280;5242;49.244;6.774;2023-05-07T04:04:18;99416.91;;;10.14;nan
10392;BME280;5242;49.244;6.774;2023-05-07T04:12:10;99416.91;;;10.14;nan
10392;BME280;5242;49.244;6.774;2023-05-07T04:20:02;99419.19;;;10.12;nan
10392;BME280;5242;49.244;6.774;2023-05-07T04:27:54;99423.50;;;10.13;nan
10392;BME280;5242;49.244;6.774;2023-05-07T04:35:48;99410.41;;;10.19;nan
10392;BME280;5242;49.244;6.774;2023-05-07T04:43:40;99402.06;;;10.28;nan
10392;BME280;5242;49.244;6.774;2023-05-07T04:51:33;99419.97;;;10.44;nan
10392;BME280;5242;49.244;6.774;2023-05-07T04:59:25;99423.50;;;10.64;nan
10392;BME280;5242;49.244;6.774;2023-05-07T05:07:17;99436.34;;;10.83;nan
10392;BME280;5242;49.244;6.774;2023-05-07T05:15:11;99446.34;;;10.95;nan
10392;BME280;5242;49.244;6.774;2023-05-07T05:23:03;99443.03;;;11.05;nan
10392;BME280;5242;49.244;6.774;2023-05-07T05:30:55;99464.44;;;11.23;nan
10392;BME280;5242;49.244;6.774;2023-05-07T05:38:47;99468.00;;;11.46;nan
10392;BME280;5242;49.244;6.774;2023-05-07T05:46:39;99468.38;;;11.68;nan
10392;BME280;5242;49.244;6.774;2023-05-07T05:54:31;99464.16;;;11.93;nan
10392;BME280;5242;49.244;6.774;2023-05-07T06:02:23;99463.16;;;12.25;nan
10392;BME280;5242;49.244;6.774;2023-05-07T06:10:15;99468.34;;;12.60;nan
10392;BME280;5242;49.244;6.774;2023-05-07T06:18:07;99464.16;;;12.96;nan
10392;BME280;5242;49.244;6.774;2023-05-07T06:25:59;99477.13;;;13.33;nan
10392;BME280;5242;49.244;6.774;2023-05-07T06:33:51;99488.50;;;13.73;nan
10392;BME280;5242;49.244;6.774;2023-05-07T06:41:43;99486.09;;;14.08;nan
10392;BME280;5242;49.244;6.774;2023-05-07T06:49:34;99489.13;;;14.44;nan
10392;BME280;5242;49.244;6.774;2023-05-07T06:57:26;99489.72;;;14.68;nan
10392;BME280;5242;49.244;6.774;2023-05-07T07:05:18;99489.84;;;14.89;nan
10392;BME280;5242;49.244;6.774;2023-05-07T07:13:10;99494.66;;;15.14;nan
10392;BME280;5242;49.244;6.774;2023-05-07T07:21:02;99479.44;;;15.27;nan
10392;BME280;5242;49.244;6.774;2023-05-07T07:28:54;99499.91;;;15.62;nan
10392;BME280;5242;49.244;6.774;2023-05-07T07:36:46;99506.31;;;16.02;nan
10392;BME280;5242;49.244;6.774;2023-05-07T07:44:37;99502.78;;;16.51;nan
10392;BME280;5242;49.244;6.774;2023-05-07T07:52:31;99507.47;;;16.90;nan
10392;BME280;5242;49.244;6.774;2023-05-07T08:00:23;99501.50;;;17.13;nan
10392;BME280;5242;49.244;6.774;2023-05-07T08:08:14;99508.53;;;17.25;nan
10392;BME280;5242;49.244;6.774;2023-05-07T08:16:06;99505.28;;;17.48;nan
10392;BME280;5242;49.244;6.774;2023-05-07T08:23:58;99507.50;;;17.75;nan
10392;BME280;5242;49.244;6.774;2023-05-07T08:31:50;99502.88;;;18.24;nan
10392;BME280;5242;49.244;6.774;2023-05-07T08:39:42;99501.78;;;19.01;nan
10392;BME280;5242;49.244;6.774;2023-05-07T08:47:40;99509.66;;;20.22;nan
10392;BME280;5242;49.244;6.774;2023-05-07T08:55:33;99492.19;;;21.55;nan
10392;BME280;5242;49.244;6.774;2023-05-07T09:03:25;99484.78;;;23.25;nan
10392;BME280;5242;49.244;6.774;2023-05-07T09:11:22;99481.19;;;23.12;nan
10392;BME280;5242;49.244;6.774;2023-05-07T09:19:14;99483.16;;;22.98;nan
10392;BME280;5242;49.244;6.774;2023-05-07T09:27:07;99493.75;;;23.16;nan
10392;BME280;5242;49.244;6.774;2023-05-07T09:35:00;99492.97;;;23.71;nan
10392;BME280;5242;49.244;6.774;2023-05-07T09:42:52;99489.69;;;24.36;nan
10392;BME280;5242;49.244;6.774;2023-05-07T09:50:49;99484.44;;;25.08;nan
10392;BME280;5242;49.244;6.774;2023-05-07T09:58:42;99484.19;;;24.93;nan
10392;BME280;5242;49.244;6.774;2023-05-07T10:06:35;99475.94;;;25.33;nan
10392;BME280;5242;49.244;6.774;2023-05-07T10:14:27;99472.66;;;26.84;nan
10392;BME280;5242;49.244;6.774;2023-05-07T10:22:20;99471.44;;;28.55;nan
10392;BME280;5242;49.244;6.774;2023-05-07T10:30:40;99475.94;;;28.04;nan
10392;BME280;5242;49.244;6.774;2023-05-07T10:38:36;99464.22;;;27.48;nan
10392;BME280;5242;49.244;6.774;2023-05-07T10:46:28;99474.75;;;26.15;nan
10392;BME280;5242;49.244;6.774;2023-05-07T10:54:21;99484.13;;;25.28;nan
10392;BME280;5242;49.244;6.774;2023-05-07T11:02:13;99471.78;;;24.72;nan
10392;BME280;5242;49.244;6.774;2023-05-07T11:10:07;99490.94;;;24.35;nan
10392;BME280;5242;49.244;6.774;2023-05-07T11:18:00;99507.06;;;24.40;nan
10392;BME280;5242;49.244;6.774;2023-05-07T11:25:58;99507.31;;;25.03;nan
10392;BME280;5242;49.244;6.774;2023-05-07T11:33:52;99494.84;;;25.92;nan
10392;BME280;5242;49.244;6.774;2023-05-07T11:41:44;99498.63;;;25.76;nan
10392;BME280;5242;49.244;6.774;2023-05-07T11:49:36;99495.69;;;25.17;nan
10392;BME280;5242;49.244;6.774;2023-05-07T11:57:28;99489.56;;;24.52;nan
10392;BME280;5242;49.244;6.774;2023-05-07T12:05:20;99501.88;;;24.17;nan
10392;BME280;5242;49.244;6.774;2023-05-07T12:21:11;99501.25;;;23.32;nan
10392;BME280;5242;49.244;6.774;2023-05-07T12:29:03;99518.97;;;22.93;nan
10392;BME280;5242;49.244;6.774;2023-05-07T12:36:55;99512.81;;;22.56;nan
10392;BME280;5242;49.244;6.774;2023-05-07T12:44:47;99523.38;;;22.12;nan
10392;BME280;5242;49.244;6.774;2023-05-07T12:52:39;99528.16;;;21.75;nan
10392;BME280;5242;49.244;6.774;2023-05-07T13:00:34;99534.72;;;21.65;nan
10392;BME280;5242;49.244;6.774;2023-05-07T13:08:37;99533.16;;;21.64;nan
10392;BME280;5242;49.244;6.774;2023-05-07T13:16:29;99540.44;;;21.58;nan
10392;BME280;5242;49.244;6.774;2023-05-07T13:24:21;99531.25;;;21.61;nan
10392;BME280;5242;49.244;6.774;2023-05-07T13:32:13;99532.94;;;21.55;nan
10392;BME280;5242;49.244;6.774;2023-05-07T13:40:05;99532.84;;;21.78;nan
10392;BME280;5242;49.244;6.774;2023-05-07T13:47:58;99530.13;;;21.58;nan
10392;BME280;5242;49.244;6.774;2023-05-07T13:55:50;99527.91;;;21.49;nan
10392;BME280;5242;49.244;6.774;2023-05-07T14:03:42;99519.59;;;21.49;nan
10392;BME280;5242;49.244;6.774;2023-05-07T14:11:34;99529.34;;;21.58;nan
10392;BME280;5242;49.244;6.774;2023-05-07T14:19:27;99530.38;;;21.64;nan
10392;BME280;5242;49.244;6.774;2023-05-07T14:27:18;99519.94;;;21.88;nan
10392;BME280;5242;49.244;6.774;2023-05-07T14:35:10;99525.94;;;22.03;nan
10392;BME280;5242;49.244;6.774;2023-05-07T14:43:02;99525.09;;;22.06;nan
10392;BME280;5242;49.244;6.774;2023-05-07T14:50:54;99526.13;;;21.96;nan
10392;BME280;5242;49.244;6.774;2023-05-07T14:58:48;99538.22;;;21.85;nan
10392;BME280;5242;49.244;6.774;2023-05-07T15:06:40;99537.06;;;21.66;nan
10392;BME280;5242;49.244;6.774;2023-05-07T15:14:32;99541.72;;;21.53;nan
10392;BME280;5242;49.244;6.774;2023-05-07T15:22:24;99544.03;;;21.35;nan
10392;BME280;5242;49.244;6.774;2023-05-07T15:30:16;99549.75;;;21.24;nan
10392;BME280;5242;49.244;6.774;2023-05-07T15:38:08;99553.75;;;21.23;nan
10392;BME280;5242;49.244;6.774;2023-05-07T15:46:00;99551.72;;;21.27;nan
10392;BME280;5242;49.244;6.774;2023-05-07T15:53:52;99559.69;;;21.21;nan
10392;BME280;5242;49.244;6.774;2023-05-07T16:01:44;99557.88;;;21.15;nan
10392;BME280;5242;49.244;6.774;2023-05-07T16:09:36;99558.84;;;21.04;nan
10392;BME280;5242;49.244;6.774;2023-05-07T16:17:28;99561.50;;;20.88;nan
10392;BME280;5242;49.244;6.774;2023-05-07T16:25:20;99560.63;;;20.71;nan
10392;BME280;5242;49.244;6.774;2023-05-07T16:33:12;99573.94;;;20.53;nan
10392;BME280;5242;49.244;6.774;2023-05-07T16:41:04;99567.03;;;20.41;nan
10392;BME280;5242;49.244;6.774;2023-05-07T16:48:59;99564.00;;;20.32;nan
10392;BME280;5242;49.244;6.774;2023-05-07T16:56:51;99580.75;;;20.21;nan
10392;BME280;5242;49.244;6.774;2023-05-07T17:04:42;99576.31;;;20.00;nan
10392;BME280;5242;49.244;6.774;2023-05-07T17:12:34;99587.72;;;19.75;nan
10392;BME280;5242;49.244;6.774;2023-05-07T17:20:28;99579.38;;;19.44;nan
10392;BME280;5242;49.244;6.774;2023-05-07T17:28:20;99576.88;;;19.19;nan
10392;BME280;5242;49.244;6.774;2023-05-07T17:36:11;99586.94;;;18.99;nan
10392;BME280;5242;49.244;6.774;2023-05-07T17:44:03;99589.47;;;18.82;nan
10392;BME280;5242;49.244;6.774;2023-05-07T17:51:55;99599.41;;;18.69;nan
10392;BME280;5242;49.244;6.774;2023-05-07T17:59:47;99606.16;;;18.64;nan
10392;BME280;5242;49.244;6.774;2023-05-07T18:07:39;99614.84;;;18.59;nan
10392;BME280;5242;49.244;6.774;2023-05-07T18:15:31;99628.31;;;18.54;nan
10392;BME280;5242;49.244;6.774;2023-05-07T18:23:24;99634.72;;;18.36;nan
10392;BME280;5242;49.244;6.774;2023-05-07T18:31:16;99651.38;;;18.15;nan
10392;BME280;5242;49.244;6.774;2023-05-07T18:39:08;99664.81;;;18.06;nan
10392;BME280;5242;49.244;6.774;2023-05-07T18:47:00;99673.09;;;17.98;nan
10392;BME280;5242;49.244;6.774;2023-05-07T18:54:52;99673.94;;;17.88;nan
10392;BME280;5242;49.244;6.774;2023-05-07T19:02:44;99660.97;;;17.78;nan
10392;BME280;5242;49.244;6.774;2023-05-07T19:10:36;99672.78;;;17.68;nan
10392;BME280;5242;49.244;6.774;2023-05-07T19:18:28;99679.50;;;17.59;nan
10392;BME280;5242;49.244;6.774;2023-05-07T19:26:21;99689.78;;;17.41;nan
10392;BME280;5242;49.244;6.774;2023-05-07T19:34:13;99701.59;;;17.24;nan
10392;BME280;5242;49.244;6.774;2023-05-07T19:42:05;99705.13;;;17.06;nan
10392;BME280;5242;49.244;6.774;2023-05-07T19:49:57;99727.50;;;16.87;nan
10392;BME280;5242;49.244;6.774;2023-05-07T19:57:49;99731.00;;;16.73;nan
10392;BME280;5242;49.244;6.774;2023-05-07T20:05:41;99731.00;;;16.62;nan
10392;BME280;5242;49.244;6.774;2023-05-07T20:13:33;99733.69;;;16.44;nan
10392;BME280;5242;49.244;6.774;2023-05-07T20:21:24;99741.84;;;16.23;nan
10392;BME280;5242;49.244;6.774;2023-05-07T20:29:17;99748.47;;;16.11;nan
10392;BME280;5242;49.244;6.774;2023-05-07T20:37:09;99750.38;;;16.00;nan
10392;BME280;5242;49.244;6.774;2023-05-07T20:45:05;99766.06;;;15.96;nan
10392;BME280;5242;49.244;6.774;2023-05-07T20:52:57;99756.56;;;15.82;nan
10392;BME280;5242;49.244;6.774;2023-05-07T21:00:50;99766.34;;;15.76;nan
10392;BME280;5242;49.244;6.774;2023-05-07T21:08:42;99773.41;;;15.77;nan
10392;BME280;5242;49.244;6.774;2023-05-07T21:16:34;99778.50;;;15.75;nan
10392;BME280;5242;49.244;6.774;2023-05-07T21:24:26;99785.91;;;15.71;nan
10392;BME280;5242;49.244;6.774;2023-05-07T21:32:18;99787.78;;;15.67;nan
10392;BME280;5242;49.244;6.774;2023-05-07T21:40:10;99791.31;;;15.64;nan
10392;BME280;5242;49.244;6.774;2023-05-07T21:48:03;99801.09;;;15.61;nan
10392;BME280;5242;49.244;6.774;2023-05-07T21:55:55;99799.50;;;15.57;nan
10392;BME280;5242;49.244;6.774;2023-05-07T22:03:47;99794.75;;;15.54;nan
10392;BME280;5242;49.244;6.774;2023-05-07T22:11:39;99786.13;;;15.52;nan
10392;BME280;5242;49.244;6.774;2023-05-07T22:19:31;99792.34;;;15.45;nan
10392;BME280;5242;49.244;6.774;2023-05-07T22:27:23;99799.38;;;15.42;nan
10392;BME280;5242;49.244;6.774;2023-05-07T22:35:15;99807.22;;;15.40;nan
10392;BME280;5242;49.244;6.774;2023-05-07T22:43:07;99808.75;;;15.38;nan
10392;BME280;5242;49.244;6.774;2023-05-07T22:50:59;99816.56;;;15.32;nan
10392;BME280;5242;49.244;6.774;2023-05-07T22:58:50;99823.53;;;15.26;nan
10392;BME280;5242;49.244;6.774;2023-05-07T23:06:42;99819.66;;;15.27;nan
10392;BME280;5242;49.244;6.774;2023-05-07T23:14:34;99812.91;;;15.21;nan
10392;BME280;5242;49.244;6.774;2023-05-07T23:22:26;99805.44;;;15.18;nan
10392;BME280;5242;49.244;6.774;2023-05-07T23:30:18;99814.44;;;15.15;nan
10392;BME280;5242;49.244;6.774;2023-05-07T23:38:10;99819.84;;;15.08;nan
10392;BME280;5242;49.244;6.774;2023-05-07T23:46:02;99817.41;;;14.99;nan
10392;BME280;5242;49.244;6.774;2023-05-07T23:53:54;99809.53;;;14.94;nan
